Fortunia — V2OG3 — position and weather

sailwx.info

Track history (hours):
 
Tides and Currents Weather Stations Pressure Air Temp Water Temp Dewpoint Dewpoint Depression Visibility Wind Speed Wind Dir Waves Ship Positions

Fortunia

Last reported at 2015-Jan-28 12:23 UTC. Time now 2015-Feb-01 00:33 UTC.
Position N 38°24' E 002°34'.

Length 121 m; draft 6.4 m.

Type: Ship. MMSI: 304010638.

Date/timePositionNaut miles runAvg speedWind from/ knotsBaromVisibWave heightAir tempDewpointWater temp
2015-Jan-28 12:23N 38°24' E 002°34'1910.2
2015-Jan-28 10:33N 38°42' E 002°28'1110.7
2015-Jan-28 09:33N 38°52' E 002°24'1010.4
2015-Jan-28 08:33N 39°02' E 002°21'1010.2
2015-Jan-28 07:33N 39°12' E 002°17'1110.5
2015-Jan-28 06:33N 39°22' E 002°14'1010.4
2015-Jan-28 05:33N 39°33' E 002°11'1010.0
2015-Jan-28 04:33N 39°43' E 002°10'1110.5
2015-Jan-28 03:33N 39°53' E 002°10'1110.6
2015-Jan-28 02:33N 40°04' E 002°10'1110.8
2015-Jan-28 01:33N 40°14' E 002°10'1110.7
2015-Jan-28 00:33N 40°25' E 002°10'1110.8
2015-Jan-27 23:33N 40°36' E 002°10'1010.2
2015-Jan-27 22:33N 40°46' E 002°10'1010.4
2015-Jan-27 21:33N 40°57' E 002°11'1210.9
2015-Jan-27 20:29N 41°08' E 002°10'1210.4
2015-Jan-27 19:23N 41°20' E 002°10'1 0.1
2015-Jan-27 08:18N 41°19' E 002°09'0 0.0
2015-Jan-27 07:30N 41°19' E 002°09'6 2.0
2015-Jan-27 04:31N 41°12' E 002°09'10 9.9
2015-Jan-27 03:33N 41°04' E 002°03'1110.6
2015-Jan-27 02:33N 40°55' E 001°56'1110.6
2015-Jan-27 01:33N 40°45' E 001°50'1110.5
2015-Jan-27 00:33N 40°36' E 001°44'1010.3
2015-Jan-26 23:33N 40°26' E 001°38'1110.6
2015-Jan-26 22:33N 40°17' E 001°31'1110.8
2015-Jan-26 21:33N 40°08' E 001°25'1110.9
2015-Jan-26 20:33N 39°58' E 001°18'1110.4
2015-Jan-26 19:32N 39°49' E 001°12'13910.0
2015-Jan-26 05:33N 37°48' W 000°18'1210.1
2015-Jan-26 04:21N 37°38' W 000°26'15 8.6
2015-Jan-26 02:33N 37°31' W 000°44'13 2.9
2015-Jan-25 22:11N 37°36' W 000°59'0 0.0
2015-Jan-25 21:31N 37°36' W 000°59'0 0.0
2015-Jan-25 20:31N 37°36' W 000°59'0 0.0
2015-Jan-25 19:33N 37°36' W 000°59'0 0.0
2015-Jan-25 18:33N 37°36' W 000°59'0 0.0
2015-Jan-25 17:33N 37°36' W 000°59'0 0.0
2015-Jan-25 16:32N 37°36' W 000°59'0 0.0
2015-Jan-25 15:32N 37°36' W 000°59'0 0.0
2015-Jan-25 14:31N 37°36' W 000°59'0 0.0
2015-Jan-25 13:33N 37°36' W 000°59'5 4.5
2015-Jan-25 12:33N 37°32' W 000°56'1211.7
2015-Jan-25 11:30N 37°28' W 000°41'  
Track history (hours):
 
Tides and Currents Weather Stations Pressure Air Temp Water Temp Dewpoint Dewpoint Depression Visibility Wind Speed Wind Dir Waves Ship Positions

Fortunia

Last reported at 2015-Jan-28 12:23 UTC. Time now 2015-Feb-01 00:33 UTC.
Position N 38°24' E 002°34'.

Length 121 m; draft 6.4 m.

Type: Ship. MMSI: 304010638.

Date/timePositionNaut miles runAvg speedWind from/ knotsBaromVisibWave heightAir tempDewpointWater temp
2015-Jan-28 12:23N 38°24' E 002°34'1910.2
2015-Jan-28 10:33N 38°42' E 002°28'1110.7
2015-Jan-28 09:33N 38°52' E 002°24'1010.4
2015-Jan-28 08:33N 39°02' E 002°21'1010.2
2015-Jan-28 07:33N 39°12' E 002°17'1110.5
2015-Jan-28 06:33N 39°22' E 002°14'1010.4
2015-Jan-28 05:33N 39°33' E 002°11'1010.0
2015-Jan-28 04:33N 39°43' E 002°10'1110.5
2015-Jan-28 03:33N 39°53' E 002°10'1110.6
2015-Jan-28 02:33N 40°04' E 002°10'1110.8
2015-Jan-28 01:33N 40°14' E 002°10'1110.7
2015-Jan-28 00:33N 40°25' E 002°10'1110.8
2015-Jan-27 23:33N 40°36' E 002°10'1010.2
2015-Jan-27 22:33N 40°46' E 002°10'1010.4
2015-Jan-27 21:33N 40°57' E 002°11'1210.9
2015-Jan-27 20:29N 41°08' E 002°10'1210.4
2015-Jan-27 19:23N 41°20' E 002°10'1 0.1
2015-Jan-27 08:18N 41°19' E 002°09'0 0.0
2015-Jan-27 07:30N 41°19' E 002°09'6 2.0
2015-Jan-27 04:31N 41°12' E 002°09'10 9.9
2015-Jan-27 03:33N 41°04' E 002°03'1110.6
2015-Jan-27 02:33N 40°55' E 001°56'1110.6
2015-Jan-27 01:33N 40°45' E 001°50'1110.5
2015-Jan-27 00:33N 40°36' E 001°44'1010.3
2015-Jan-26 23:33N 40°26' E 001°38'1110.6
2015-Jan-26 22:33N 40°17' E 001°31'1110.8
2015-Jan-26 21:33N 40°08' E 001°25'1110.9
2015-Jan-26 20:33N 39°58' E 001°18'1110.4
2015-Jan-26 19:32N 39°49' E 001°12'13910.0
2015-Jan-26 05:33N 37°48' W 000°18'1210.1
2015-Jan-26 04:21N 37°38' W 000°26'15 8.6
2015-Jan-26 02:33N 37°31' W 000°44'13 2.9
2015-Jan-25 22:11N 37°36' W 000°59'0 0.0
2015-Jan-25 21:31N 37°36' W 000°59'0 0.0
2015-Jan-25 20:31N 37°36' W 000°59'0 0.0
2015-Jan-25 19:33N 37°36' W 000°59'0 0.0
2015-Jan-25 18:33N 37°36' W 000°59'0 0.0
2015-Jan-25 17:33N 37°36' W 000°59'0 0.0
2015-Jan-25 16:32N 37°36' W 000°59'0 0.0
2015-Jan-25 15:32N 37°36' W 000°59'0 0.0
2015-Jan-25 14:31N 37°36' W 000°59'0 0.0
2015-Jan-25 13:33N 37°36' W 000°59'5 4.5
2015-Jan-25 12:33N 37°32' W 000°56'1211.7
2015-Jan-25 11:30N 37°28' W 000°41'  

Dump ship's entire track history